createdAt,value
2023-02-22T00:00:42.903Z,44.95
2023-02-22T00:03:15.661Z,44.40
2023-02-22T00:05:47.365Z,45.10
2023-02-22T00:08:15.104Z,45.45
2023-02-22T00:10:41.620Z,46.53
2023-02-22T00:13:09.023Z,44.72
2023-02-22T00:15:35.834Z,45.88
2023-02-22T00:18:03.177Z,44.45
2023-02-22T00:20:29.726Z,46.33
2023-02-22T00:22:56.352Z,45.42
2023-02-22T00:25:24.407Z,46.75
2023-02-22T00:27:52.839Z,45.45
2023-02-22T00:30:24.044Z,45.05
2023-02-22T00:32:50.836Z,46.28
2023-02-22T00:35:18.587Z,45.58
2023-02-22T00:37:47.574Z,44.22
2023-02-22T00:40:16.262Z,44.33
2023-02-22T00:42:42.993Z,41.95
2023-02-22T00:45:15.248Z,42.75
2023-02-22T00:47:46.589Z,43.95
2023-02-22T00:50:13.369Z,45.80
2023-02-22T00:52:39.938Z,43.70
2023-02-22T00:55:08.114Z,43.40
2023-02-22T00:57:35.206Z,42.17
2023-02-22T01:00:13.112Z,44.85
2023-02-22T01:02:40.008Z,44.95
2023-02-22T01:05:16.429Z,44.15
2023-02-22T01:07:43.101Z,46.42
2023-02-22T01:10:10.222Z,44.97
2023-02-22T01:12:37.119Z,44.15
2023-02-22T01:15:10.404Z,45.13
2023-02-22T01:17:37.534Z,45.47
2023-02-22T01:20:12.876Z,41.55
2023-02-22T01:22:40.195Z,40.47
2023-02-22T01:25:07.511Z,40.78
2023-02-22T01:27:35.008Z,40.00
2023-02-22T01:30:01.742Z,42.97
2023-02-22T01:32:28.176Z,37.90
2023-02-22T01:34:54.780Z,41.10
2023-02-22T01:37:21.212Z,41.22
2023-02-22T01:39:47.620Z,39.58
2023-02-22T01:42:14.097Z,40.83
2023-02-22T01:44:41.554Z,44.28
2023-02-22T01:47:10.912Z,42.60
2023-02-22T01:49:40.405Z,44.17
2023-02-22T01:52:08.903Z,39.30
2023-02-22T01:54:37.428Z,41.33
2023-02-22T01:57:07.312Z,39.67
2023-02-22T01:59:38.335Z,39.53
2023-02-22T02:02:05.055Z,41.13
2023-02-22T02:04:32.414Z,38.50
2023-02-22T02:07:01.283Z,33.88
2023-02-22T02:09:32.297Z,33.20
2023-02-22T02:12:00.907Z,31.05
2023-02-22T02:14:27.337Z,34.15
2023-02-22T02:16:56.202Z,31.92
2023-02-22T02:19:25.681Z,36.63
2023-02-22T02:22:01.357Z,33.30
2023-02-22T02:24:28.489Z,34.33
2023-02-22T02:27:18.280Z,35.28
2023-02-22T02:30:03.598Z,37.10
2023-02-22T02:32:30.120Z,33.60
2023-02-22T02:34:56.580Z,33.92
2023-02-22T02:37:37.056Z,32.10
2023-02-22T02:40:06.610Z,34.22
2023-02-22T02:42:38.195Z,33.13
2023-02-22T02:45:09.985Z,35.08
2023-02-22T02:47:42.403Z,33.08
2023-02-22T02:50:16.565Z,34.08
2023-02-22T02:52:44.777Z,35.60
2023-02-22T02:55:11.502Z,34.63
2023-02-22T02:57:38.974Z,34.25
2023-02-22T03:00:26.677Z,32.38
2023-02-22T03:02:55.896Z,36.95
2023-02-22T03:05:43.344Z,35.53
2023-02-22T03:08:09.762Z,36.67
2023-02-22T03:10:55.099Z,36.20
2023-02-22T03:13:30.183Z,38.47
2023-02-22T03:16:05.855Z,37.42
2023-02-22T03:18:38.883Z,35.33
2023-02-22T03:21:10.793Z,35.38
2023-02-22T03:23:40.285Z,37.25
2023-02-22T03:26:13.115Z,35.63
2023-02-22T03:28:41.152Z,39.20
2023-02-22T03:31:10.983Z,37.30
2023-02-22T03:33:42.183Z,37.70
2023-02-22T03:36:17.382Z,37.80
2023-02-22T03:38:45.050Z,38.65
2023-02-22T03:41:12.836Z,40.92
2023-02-22T03:43:42.652Z,38.03
2023-02-22T03:46:10.115Z,40.72
2023-02-22T03:48:39.560Z,39.58
2023-02-22T03:51:06.364Z,39.28
2023-02-22T03:53:34.028Z,38.80
2023-02-22T03:56:01.244Z,37.90
2023-02-22T03:58:30.156Z,41.10
2023-02-22T04:00:56.851Z,40.05
2023-02-22T04:03:23.482Z,38.20
2023-02-22T04:05:50.254Z,39.33
2023-02-22T04:08:17.329Z,38.88
2023-02-22T04:10:43.779Z,35.85
2023-02-22T04:13:10.764Z,36.50
2023-02-22T04:15:37.426Z,36.08
2023-02-22T04:18:04.000Z,35.60
2023-02-22T04:20:31.786Z,35.72
2023-02-22T04:22:58.407Z,37.13
2023-02-22T04:25:24.973Z,38.35
2023-02-22T04:27:51.510Z,37.15
2023-02-22T04:30:19.267Z,38.95
2023-02-22T04:32:45.941Z,35.50
2023-02-22T04:35:12.383Z,37.20
2023-02-22T04:37:38.843Z,35.45
2023-02-22T04:40:08.693Z,35.42
2023-02-22T04:42:36.106Z,34.47
2023-02-22T04:45:03.299Z,32.63
2023-02-22T04:47:29.853Z,34.35
2023-02-22T04:49:56.319Z,33.80
2023-02-22T04:52:22.790Z,35.55
2023-02-22T04:54:49.211Z,34.58
2023-02-22T04:57:15.834Z,36.13
2023-02-22T04:59:42.315Z,32.92
2023-02-22T05:02:08.889Z,31.42
2023-02-22T05:04:37.545Z,31.90
2023-02-22T05:07:04.152Z,29.85
2023-02-22T05:09:30.557Z,32.60
2023-02-22T05:11:57.065Z,31.02
2023-02-22T05:14:26.796Z,33.47
2023-02-22T05:16:59.792Z,30.88
2023-02-22T05:19:26.273Z,31.27
2023-02-22T05:21:52.710Z,29.80
2023-02-22T05:24:19.123Z,30.90
2023-02-22T05:26:45.817Z,29.50
2023-02-22T05:29:12.616Z,31.15
2023-02-22T05:31:39.218Z,30.98
2023-02-22T05:34:05.683Z,29.90
2023-02-22T05:36:32.202Z,31.92
2023-02-22T05:38:58.652Z,31.75
2023-02-22T05:41:25.099Z,33.20
2023-02-22T05:43:51.670Z,32.67
2023-02-22T05:46:18.130Z,33.35
2023-02-22T05:48:44.679Z,34.30
2023-02-22T05:51:11.171Z,34.13
2023-02-22T05:53:37.698Z,33.15
2023-02-22T05:56:04.873Z,33.80
2023-02-22T05:58:31.388Z,31.95
2023-02-22T06:00:57.848Z,27.85
2023-02-22T06:03:24.324Z,27.27
2023-02-22T06:05:50.978Z,28.60
2023-02-22T06:08:18.142Z,28.88
2023-02-22T06:10:44.778Z,27.48
2023-02-22T06:13:11.191Z,28.75
2023-02-22T06:15:37.607Z,30.05
2023-02-22T06:18:04.136Z,29.30
2023-02-22T06:20:30.984Z,32.28
2023-02-22T06:22:58.854Z,31.80
2023-02-22T06:25:27.125Z,31.70
2023-02-22T06:27:53.685Z,32.20
2023-02-22T06:30:21.314Z,35.63
2023-02-22T06:32:47.755Z,35.03
2023-02-22T06:35:15.064Z,35.78
2023-02-22T06:37:41.691Z,36.78
2023-02-22T06:40:08.257Z,40.05
2023-02-22T06:42:34.689Z,40.78
2023-02-22T06:45:01.171Z,46.80
2023-02-22T06:47:27.707Z,43.70
2023-02-22T06:49:54.703Z,45.05
2023-02-22T06:52:21.273Z,38.95
2023-02-22T06:54:47.875Z,38.70
2023-02-22T06:57:14.321Z,36.17
2023-02-22T06:59:40.738Z,35.90
2023-02-22T07:02:07.250Z,37.70
2023-02-22T07:04:35.106Z,36.08
2023-02-22T07:07:02.567Z,33.33
2023-02-22T07:09:29.043Z,34.55
2023-02-22T07:11:56.211Z,34.35
2023-02-22T07:14:23.352Z,32.58
2023-02-22T07:16:49.771Z,32.58
2023-02-22T07:19:16.306Z,29.65
2023-02-22T07:21:42.810Z,29.48
2023-02-22T07:24:09.298Z,28.85
2023-02-22T07:26:42.508Z,29.23
2023-02-22T07:29:09.055Z,31.48
2023-02-22T07:31:36.255Z,29.10
2023-02-22T07:34:02.788Z,29.73
2023-02-22T07:36:29.292Z,29.10
2023-02-22T07:38:55.701Z,28.52
2023-02-22T07:41:23.133Z,26.65
2023-02-22T07:43:49.585Z,26.02
2023-02-22T07:46:16.023Z,24.77
2023-02-22T07:48:42.487Z,24.58
2023-02-22T07:51:10.142Z,24.38
2023-02-22T07:53:36.620Z,23.73
2023-02-22T07:56:05.476Z,22.85
2023-02-22T07:58:32.669Z,25.08
2023-02-22T08:00:59.178Z,22.23
2023-02-22T08:03:26.462Z,23.98
2023-02-22T08:05:54.239Z,23.33
2023-02-22T08:08:20.798Z,23.30
2023-02-22T08:10:47.662Z,22.75
2023-02-22T08:13:14.314Z,23.33
2023-02-22T08:15:41.404Z,22.42
2023-02-22T08:18:09.651Z,22.02
2023-02-22T08:20:36.724Z,20.98
2023-02-22T08:23:03.285Z,22.15
2023-02-22T08:25:29.838Z,23.38
2023-02-22T08:28:01.362Z,19.98
2023-02-22T08:30:28.980Z,18.67
2023-02-22T08:32:55.882Z,19.33
2023-02-22T08:35:23.133Z,19.38
2023-02-22T08:37:51.152Z,18.75
2023-02-22T08:40:19.541Z,19.65
2023-02-22T08:42:45.985Z,19.65
2023-02-22T08:45:13.515Z,19.70
2023-02-22T08:47:40.253Z,20.60
2023-02-22T08:50:07.270Z,20.73
2023-02-22T08:52:35.102Z,21.08
2023-02-22T08:55:02.021Z,19.92
2023-02-22T08:57:28.565Z,20.77
2023-02-22T08:59:55.089Z,20.00
2023-02-22T09:02:21.988Z,18.20
2023-02-22T09:04:49.110Z,17.85
2023-02-22T09:07:16.136Z,17.15
2023-02-22T09:09:42.928Z,23.70
2023-02-22T09:12:09.487Z,18.85
2023-02-22T09:14:35.948Z,18.05
2023-02-22T09:17:04.675Z,17.23
2023-02-22T09:19:32.390Z,18.23
2023-02-22T09:22:00.148Z,18.92
2023-02-22T09:24:27.068Z,18.38
2023-02-22T09:26:56.513Z,19.23
2023-02-22T09:29:24.097Z,17.65
2023-02-22T09:31:52.391Z,17.50
2023-02-22T09:34:20.170Z,18.05
2023-02-22T09:36:50.210Z,16.95
2023-02-22T09:39:17.862Z,17.63
2023-02-22T09:41:50.362Z,16.20
2023-02-22T09:44:29.071Z,15.85
2023-02-22T09:46:57.277Z,15.00
2023-02-22T09:49:32.402Z,16.50
2023-02-22T09:52:01.747Z,15.10
2023-02-22T09:54:38.481Z,15.88
2023-02-22T09:57:08.677Z,14.60
2023-02-22T09:59:38.366Z,15.82
2023-02-22T10:02:16.357Z,14.38
2023-02-22T10:04:52.814Z,15.07
2023-02-22T10:07:48.621Z,14.52
2023-02-22T10:10:18.573Z,15.27
2023-02-22T10:12:57.153Z,14.63
2023-02-22T10:15:23.624Z,15.20
2023-02-22T10:18:05.094Z,15.32
2023-02-22T10:20:46.811Z,13.55
2023-02-22T10:23:20.887Z,13.48
2023-02-22T10:25:51.574Z,14.50
2023-02-22T10:28:19.752Z,14.35
2023-02-22T10:30:56.142Z,13.70
2023-02-22T10:33:24.246Z,14.15
2023-02-22T10:35:51.677Z,13.52
2023-02-22T10:38:18.166Z,14.00
2023-02-22T10:40:54.753Z,14.48
2023-02-22T10:43:21.449Z,14.18
2023-02-22T10:45:48.258Z,14.10
2023-02-22T10:48:18.477Z,13.88
2023-02-22T10:50:45.875Z,13.77
2023-02-22T10:53:12.893Z,14.25
2023-02-22T10:55:59.298Z,13.68
2023-02-22T10:58:25.769Z,15.63
2023-02-22T11:00:52.482Z,15.25
2023-02-22T11:03:20.865Z,16.23
2023-02-22T11:05:47.843Z,16.35
2023-02-22T11:08:26.814Z,19.52
2023-02-22T11:10:57.605Z,15.35
2023-02-22T11:13:25.953Z,18.23
2023-02-22T11:15:53.536Z,16.65
2023-02-22T11:18:27.720Z,15.52
2023-02-22T11:21:20.751Z,15.45
2023-02-22T11:23:47.312Z,15.40
2023-02-22T11:26:16.996Z,16.25
2023-02-22T11:28:49.463Z,16.50
2023-02-22T11:31:17.450Z,15.05
2023-02-22T11:34:03.898Z,17.73
2023-02-22T11:36:37.615Z,15.48
2023-02-22T11:39:05.843Z,15.82
2023-02-22T11:41:35.563Z,16.33
2023-02-22T11:44:21.236Z,15.48
2023-02-22T11:46:48.441Z,15.75
2023-02-22T11:49:17.845Z,16.27
2023-02-22T11:52:03.629Z,16.27
2023-02-22T11:54:31.555Z,16.15
2023-02-22T11:57:01.200Z,16.75
2023-02-22T11:59:43.048Z,16.42
2023-02-22T12:02:33.677Z,14.23
2023-02-22T12:05:00.352Z,15.52
2023-02-22T12:07:56.567Z,16.95
2023-02-22T12:10:26.240Z,16.25
2023-02-22T12:12:55.487Z,16.65
2023-02-22T12:15:25.101Z,15.68
2023-02-22T12:18:10.430Z,15.63
2023-02-22T12:20:43.869Z,15.85
2023-02-22T12:25:58.765Z,15.75
2023-02-22T12:28:28.357Z,16.88
2023-02-22T12:31:06.285Z,16.10
2023-02-22T12:33:44.230Z,17.65
2023-02-22T12:36:13.638Z,17.08
2023-02-22T12:38:44.356Z,16.80
2023-02-22T12:41:22.779Z,17.70
2023-02-22T12:43:59.317Z,17.65
2023-02-22T12:46:32.142Z,17.35
2023-02-22T12:49:10.768Z,17.38
2023-02-22T12:51:45.110Z,17.42
2023-02-22T12:54:25.428Z,17.65
2023-02-22T12:56:54.919Z,17.90
2023-02-22T12:59:32.094Z,18.88
2023-02-22T13:02:01.175Z,18.40
2023-02-22T13:04:31.830Z,17.85
2023-02-22T13:07:10.171Z,19.77
2023-02-22T13:09:51.620Z,19.80
2023-02-22T13:12:18.006Z,19.35
2023-02-22T13:15:00.722Z,19.98
2023-02-22T13:17:33.300Z,20.63
2023-02-22T13:19:59.815Z,20.70
2023-02-22T13:22:29.231Z,20.20
2023-02-22T13:24:58.716Z,20.33
2023-02-22T13:27:26.045Z,21.13
2023-02-22T13:29:55.878Z,19.70
2023-02-22T13:32:22.424Z,20.20
2023-02-22T13:34:58.013Z,19.90
2023-02-22T13:37:27.522Z,21.02
2023-02-22T13:39:56.996Z,18.80
2023-02-22T13:42:38.764Z,21.55
2023-02-22T13:45:24.023Z,21.17
2023-02-22T13:47:50.408Z,21.15
2023-02-22T13:50:35.556Z,23.15
2023-02-22T13:53:05.032Z,22.10
2023-02-22T13:55:33.011Z,22.15
2023-02-22T13:58:04.464Z,22.42
2023-02-22T14:00:42.371Z,21.60
2023-02-22T14:03:14.942Z,21.83
2023-02-22T14:05:41.754Z,23.10
2023-02-22T14:08:28.953Z,21.98
2023-02-22T14:10:59.289Z,24.23
2023-02-22T14:13:29.795Z,23.10
2023-02-22T14:16:02.571Z,23.13
2023-02-22T14:18:43.309Z,23.77
2023-02-22T14:21:15.650Z,23.25
2023-02-22T14:23:43.329Z,23.50
2023-02-22T14:26:17.848Z,22.27
2023-02-22T14:29:02.880Z,23.75
2023-02-22T14:31:37.102Z,24.52
2023-02-22T14:34:06.251Z,24.98
2023-02-22T14:36:45.097Z,24.35
2023-02-22T14:39:18.526Z,24.73
2023-02-22T14:44:12.958Z,23.70
2023-02-22T14:46:41.687Z,26.45
2023-02-22T14:49:11.736Z,27.77
2023-02-22T14:51:42.516Z,28.50
2023-02-22T14:54:13.363Z,27.83
2023-02-22T14:56:47.548Z,28.95
2023-02-22T14:59:13.941Z,29.90
2023-02-22T15:01:52.839Z,29.05
2023-02-22T15:04:26.632Z,31.60
2023-02-22T15:06:54.345Z,31.48
2023-02-22T15:09:28.958Z,32.97
2023-02-22T15:12:05.437Z,31.75
2023-02-22T15:14:33.229Z,33.28
2023-02-22T15:17:01.626Z,35.20
2023-02-22T15:19:33.586Z,33.97
2023-02-22T15:22:00.918Z,36.42
2023-02-22T15:24:28.960Z,35.75
2023-02-22T15:27:02.513Z,35.85
2023-02-22T15:29:35.687Z,37.80
2023-02-22T15:32:02.182Z,37.15
2023-02-22T15:34:30.323Z,36.95
2023-02-22T15:36:57.995Z,39.67
2023-02-22T15:39:29.785Z,39.70
2023-02-22T15:42:02.433Z,38.17
2023-02-22T15:44:29.053Z,39.07
2023-02-22T15:46:56.642Z,40.85
2023-02-22T15:49:23.772Z,42.78
2023-02-22T15:52:02.818Z,43.15
2023-02-22T15:54:29.328Z,44.78
2023-02-22T15:56:56.597Z,47.33
2023-02-22T15:59:29.483Z,45.03
2023-02-22T16:01:57.224Z,46.75
2023-02-22T16:04:25.482Z,46.28
2023-02-22T16:06:54.284Z,45.53
2023-02-22T16:09:26.152Z,45.65
2023-02-22T16:12:23.933Z,46.60
2023-02-22T16:14:52.459Z,46.72
2023-02-22T16:17:25.595Z,48.13
2023-02-22T16:19:52.660Z,45.75
2023-02-22T16:22:26.728Z,46.53
2023-02-22T16:24:54.612Z,45.30
2023-02-22T16:27:22.673Z,43.80
2023-02-22T16:30:24.962Z,44.75
2023-02-22T16:32:52.496Z,44.13
2023-02-22T16:35:19.110Z,45.40
2023-02-22T16:37:49.722Z,46.70
2023-02-22T16:40:23.733Z,46.13
2023-02-22T16:42:51.558Z,45.58
2023-02-22T16:45:19.095Z,53.17
2023-02-22T16:47:45.734Z,51.90
2023-02-22T16:50:12.806Z,54.03
2023-02-22T16:52:39.905Z,55.72
2023-02-22T16:55:09.499Z,56.00
2023-02-22T16:57:37.012Z,56.53
2023-02-22T17:00:07.985Z,55.28
2023-02-22T17:02:34.484Z,55.47
2023-02-22T17:05:01.057Z,55.08
2023-02-22T17:07:30.795Z,54.63
2023-02-22T17:10:00.660Z,55.42
2023-02-22T17:12:28.144Z,55.35
2023-02-22T17:14:54.713Z,54.90
2023-02-22T17:17:21.159Z,53.35
2023-02-22T17:19:47.579Z,47.75
2023-02-22T17:22:18.183Z,48.17
2023-02-22T17:24:45.119Z,48.55
2023-02-22T17:27:11.743Z,51.17
2023-02-22T17:29:38.237Z,50.33
2023-02-22T17:32:04.887Z,50.47
2023-02-22T17:34:32.649Z,51.20
2023-02-22T17:36:59.084Z,52.25
2023-02-22T17:39:27.459Z,50.15
2023-02-22T17:41:57.555Z,50.22
2023-02-22T17:44:27.110Z,50.33
2023-02-22T17:46:53.755Z,49.78
2023-02-22T17:49:20.220Z,49.53
2023-02-22T17:51:49.624Z,50.40
2023-02-22T17:54:17.588Z,51.03
2023-02-22T17:56:44.073Z,49.03
2023-02-22T17:59:10.763Z,47.60
2023-02-22T18:01:37.684Z,48.30
2023-02-22T18:04:05.194Z,45.40
2023-02-22T18:06:32.823Z,45.63
2023-02-22T18:09:00.386Z,45.45
2023-02-22T18:11:28.457Z,44.20
2023-02-22T18:13:56.020Z,43.42
2023-02-22T18:16:23.212Z,42.53
2023-02-22T18:18:49.950Z,43.90
2023-02-22T18:21:16.495Z,43.67
2023-02-22T18:23:44.688Z,43.05
2023-02-22T18:26:15.868Z,41.08
2023-02-22T18:28:42.343Z,42.33
2023-02-22T18:31:10.157Z,42.92
2023-02-22T18:33:36.636Z,43.13
2023-02-22T18:36:03.461Z,41.65
2023-02-22T18:38:29.982Z,40.60
2023-02-22T18:40:59.789Z,41.47
2023-02-22T18:43:26.894Z,40.40
2023-02-22T18:45:53.644Z,41.88
2023-02-22T18:48:20.141Z,42.20
2023-02-22T18:50:46.649Z,43.67
2023-02-22T18:53:13.248Z,42.25
2023-02-22T18:55:40.060Z,43.25
2023-02-22T18:58:06.768Z,42.78
2023-02-22T19:00:34.640Z,42.78
2023-02-22T19:03:01.477Z,40.55
2023-02-22T19:05:28.118Z,44.08
2023-02-22T19:07:54.769Z,42.10
2023-02-22T19:10:22.682Z,44.08
2023-02-22T19:12:49.280Z,42.78
2023-02-22T19:15:15.947Z,45.65
2023-02-22T19:17:49.417Z,44.05
2023-02-22T19:22:42.409Z,44.92
2023-02-22T19:25:08.995Z,46.17
2023-02-22T19:27:35.815Z,47.88
2023-02-22T19:30:03.925Z,47.53
2023-02-22T19:32:30.673Z,46.83
2023-02-22T19:35:02.233Z,47.80
2023-02-22T19:37:34.110Z,48.90
2023-02-22T19:40:09.785Z,47.00
2023-02-22T19:42:36.342Z,48.33
2023-02-22T19:45:02.845Z,46.45
2023-02-22T19:47:29.521Z,46.65
2023-02-22T19:49:59.778Z,48.58
2023-02-22T19:52:29.006Z,48.25
2023-02-22T19:54:55.728Z,46.47
2023-02-22T19:57:23.775Z,48.50
2023-02-22T19:59:50.838Z,48.05
2023-02-22T20:02:17.861Z,48.65
2023-02-22T20:04:44.453Z,49.72
2023-02-22T20:07:11.138Z,49.58
2023-02-22T20:09:39.770Z,51.30
2023-02-22T20:12:06.870Z,49.05
2023-02-22T20:14:34.357Z,47.42
2023-02-22T20:17:01.331Z,49.15
2023-02-22T20:19:28.166Z,48.90
2023-02-22T20:21:58.475Z,47.80
2023-02-22T20:24:26.131Z,48.30
2023-02-22T20:26:55.909Z,46.40
2023-02-22T20:29:29.474Z,46.67
2023-02-22T20:34:25.145Z,45.35
2023-02-22T20:36:53.691Z,45.97
2023-02-22T20:39:20.174Z,48.15
2023-02-22T20:41:46.788Z,47.30
2023-02-22T20:44:14.462Z,46.40
2023-02-22T20:46:41.534Z,48.78
2023-02-22T20:49:08.853Z,47.80
2023-02-22T20:51:35.811Z,49.17
2023-02-22T20:54:02.620Z,49.92
2023-02-22T20:56:30.287Z,46.25
2023-02-22T20:58:57.707Z,47.20
2023-02-22T21:01:24.658Z,49.22
2023-02-22T21:03:51.566Z,47.92
2023-02-22T21:06:21.320Z,49.03
2023-02-22T21:08:53.684Z,49.88
2023-02-22T21:11:20.802Z,49.22
2023-02-22T21:13:47.358Z,50.42
2023-02-22T21:16:21.754Z,50.47
2023-02-22T21:18:50.542Z,49.10
2023-02-22T21:21:17.326Z,50.28
2023-02-22T21:23:49.660Z,50.45
2023-02-22T21:26:17.362Z,51.38
2023-02-22T21:28:51.947Z,53.50
2023-02-22T21:31:20.156Z,50.83
2023-02-22T21:33:49.238Z,53.78
2023-02-22T21:36:18.556Z,51.85
2023-02-22T21:38:46.284Z,52.70
2023-02-22T21:41:13.298Z,50.58
2023-02-22T21:43:40.187Z,51.78
2023-02-22T21:46:07.902Z,53.00
2023-02-22T21:48:34.825Z,55.00
2023-02-22T21:51:08.745Z,53.50
2023-02-22T21:53:35.299Z,54.47
2023-02-22T21:56:05.926Z,53.83
2023-02-22T21:58:32.329Z,54.40
2023-02-22T22:01:03.923Z,55.53
2023-02-22T22:03:30.418Z,55.35
2023-02-22T22:05:56.932Z,54.55
2023-02-22T22:08:25.085Z,53.90
2023-02-22T22:10:55.242Z,56.17
2023-02-22T22:13:22.586Z,58.55
2023-02-22T22:15:49.660Z,57.42
2023-02-22T22:18:16.343Z,58.05
2023-02-22T22:20:44.774Z,54.90
2023-02-22T22:23:11.446Z,56.15
2023-02-22T22:25:38.301Z,54.33
2023-02-22T22:28:07.685Z,54.65
2023-02-22T22:30:36.536Z,56.17
2023-02-22T22:33:06.431Z,57.13
2023-02-22T22:35:33.536Z,55.80
2023-02-22T22:38:00.577Z,56.47
2023-02-22T22:40:27.448Z,59.83
2023-02-22T22:42:53.972Z,56.25
2023-02-22T22:45:20.408Z,55.90
2023-02-22T22:47:46.928Z,55.80
2023-02-22T22:50:14.529Z,57.05
2023-02-22T22:52:41.039Z,57.20
2023-02-22T22:55:11.988Z,57.38
2023-02-22T22:57:39.523Z,58.58
2023-02-22T23:00:30.344Z,57.25
2023-02-22T23:02:57.323Z,58.42
2023-02-22T23:05:25.895Z,60.60
2023-02-22T23:07:52.746Z,60.38
2023-02-22T23:10:19.311Z,59.95
2023-02-22T23:12:45.856Z,59.30
2023-02-22T23:15:13.858Z,60.33
2023-02-22T23:17:43.189Z,62.67
2023-02-22T23:20:12.611Z,61.55
2023-02-22T23:22:46.941Z,60.97
2023-02-22T23:25:13.771Z,63.78
2023-02-22T23:27:40.261Z,65.90
2023-02-22T23:30:07.199Z,63.97
2023-02-22T23:32:35.351Z,61.80
2023-02-22T23:35:01.883Z,65.78
2023-02-22T23:37:28.350Z,64.55
2023-02-22T23:39:54.760Z,64.80
2023-02-22T23:42:23.094Z,66.05
2023-02-22T23:44:49.517Z,64.18
2023-02-22T23:47:16.058Z,63.92
2023-02-22T23:49:45.340Z,64.68
2023-02-22T23:52:13.462Z,57.20
2023-02-22T23:54:43.960Z,55.53
2023-02-22T23:57:10.598Z,60.42
2023-02-22T23:59:40.450Z,61.63
